| Date | Time | Temp. (oF) | Dew Point (oF) | Rel. Hum. (%) | Press. (in.) | Wind Dir. | Wind Speed (mph) | Hourly Rainfall (in.) |
|
|---|---|---|---|---|---|---|---|---|---|
| 1 | 01/18 | 00:00 | 12 | 1 | 63 | 30.13 | NW | 4 | 0.00 |
| 2 | 01/17 | 23:00 | 14 | 3 | 63 | 30.11 | N | 5 | 0.00 |
| 3 | 01/17 | 22:00 | 17 | 6 | 63 | 30.08 | NW | 6 | 0.00 |
| 4 | 01/17 | 21:00 | 19 | 5 | 56 | 30.05 | WNW | 7 | 0.00 |
| 5 | 01/17 | 20:00 | 21 | 9 | 61 | 30.02 | WNW | 8 | 0.00 |
| 6 | 01/17 | 19:00 | 22 | 12 | 67 | 30.00 | WNW | 12 | 0.00 |
| 7 | 01/17 | 18:00 | 21 | 12 | 68 | 29.98 | NW | 4 | 0.00 |
| 8 | 01/17 | 17:00 | 23 | 12 | 63 | 29.95 | W | 9 | 0.00 |
| 9 | 01/17 | 16:00 | 24 | 13 | 64 | 29.93 | WNW | 8 | 0.00 |
| 10 | 01/17 | 15:00 | 25 | 16 | 69 | 29.91 | WNW | 8 | 0.00 |
| 11 | 01/17 | 14:00 | 27 | 16 | 63 | 29.88 | NW | 13 | 0.00 |
| 12 | 01/17 | 13:00 | 26 | 17 | 70 | 29.90 | NW | 5 | 0.00 |
| 13 | 01/17 | 12:00 | 25 | 16 | 71 | 29.91 | NNW | 7 | 0.00 |
| 14 | 01/17 | 11:00 | 23 | 16 | 77 | 29.93 | WNW | 8 | 0.00 |
| 15 | 01/17 | 10:00 | 20 | 15 | 84 | 29.92 | W | 7 | 0.00 |
| 16 | 01/17 | 09:00 | 18 | 16 | 94 | 29.91 | NW | 8 | 0.00 |
| 17 | 01/17 | 08:00 | 16 | 15 | 99 | 29.89 | SW | 3 | 0.00 |
| 18 | 01/17 | 07:00 | 16 | 15 | 99 | 29.88 | WNW | 6 | 0.00 |
| 19 | 01/17 | 06:00 | 17 | 17 | 100 | 29.86 | NW | 3 | 0.00 |
| 20 | 01/17 | 05:00 | 17 | 17 | 100 | 29.86 | NW | 1 | 0.01 |
| 21 | 01/17 | 04:00 | 16 | 15 | 99 | 29.88 | NW | 0 | 0.00 |
| 22 | 01/17 | 03:00 | 17 | 16 | 99 | 29.89 | NNW | 0 | 0.00 |
| 23 | 01/17 | 02:00 | 18 | 17 | 98 | 29.90 | SSW | 0 | 0.01 |
| 24 | 01/17 | 01:00 | 20 | 19 | 98 | 29.93 | SSW | 1 | 0.00 |